sensor_id;sensor_type;location;lat;lon;timestamp;temperature;humidity
13268;DHT22;6702;47.068;15.458;2022-12-07T00:02:15;4.70;99.90
13268;DHT22;6702;47.068;15.458;2022-12-07T00:05:18;4.80;99.90
13268;DHT22;6702;47.068;15.458;2022-12-07T00:08:23;4.80;99.90
13268;DHT22;6702;47.068;15.458;2022-12-07T00:11:26;4.90;99.90
13268;DHT22;6702;47.068;15.458;2022-12-07T00:14:29;5.00;99.90
13268;DHT22;6702;47.068;15.458;2022-12-07T00:17:32;5.00;99.90
13268;DHT22;6702;47.068;15.458;2022-12-07T00:20:36;5.10;99.90
13268;DHT22;6702;47.068;15.458;2022-12-07T00:23:41;5.10;99.90
13268;DHT22;6702;47.068;15.458;2022-12-07T00:26:45;5.20;99.90
13268;DHT22;6702;47.068;15.458;2022-12-07T00:29:48;5.20;99.90
13268;DHT22;6702;47.068;15.458;2022-12-07T00:36:03;5.20;99.90
13268;DHT22;6702;47.068;15.458;2022-12-07T00:46:31;5.20;99.90
13268;DHT22;6702;47.068;15.458;2022-12-07T00:49:34;5.10;99.90
13268;DHT22;6702;47.068;15.458;2022-12-07T00:52:38;5.10;99.90
13268;DHT22;6702;47.068;15.458;2022-12-07T00:55:41;5.10;99.90
13268;DHT22;6702;47.068;15.458;2022-12-07T00:58:50;5.20;99.90
13268;DHT22;6702;47.068;15.458;2022-12-07T01:01:54;5.20;99.90
13268;DHT22;6702;47.068;15.458;2022-12-07T01:04:58;5.20;99.90
13268;DHT22;6702;47.068;15.458;2022-12-07T01:08:01;5.20;99.90
13268;DHT22;6702;47.068;15.458;2022-12-07T01:11:07;5.20;99.90
13268;DHT22;6702;47.068;15.458;2022-12-07T01:14:10;5.20;99.90
13268;DHT22;6702;47.068;15.458;2022-12-07T01:17:15;5.20;99.90
13268;DHT22;6702;47.068;15.458;2022-12-07T01:20:18;5.20;99.90
13268;DHT22;6702;47.068;15.458;2022-12-07T01:23:21;5.20;99.90
13268;DHT22;6702;47.068;15.458;2022-12-07T01:26:25;5.20;99.90
13268;DHT22;6702;47.068;15.458;2022-12-07T01:29:28;5.20;99.90
13268;DHT22;6702;47.068;15.458;2022-12-07T01:32:32;5.10;99.90
13268;DHT22;6702;47.068;15.458;2022-12-07T01:35:36;5.10;99.90
13268;DHT22;6702;47.068;15.458;2022-12-07T01:38:39;5.10;99.90
13268;DHT22;6702;47.068;15.458;2022-12-07T01:41:42;5.10;99.90
13268;DHT22;6702;47.068;15.458;2022-12-07T01:48:41;5.10;99.90
13268;DHT22;6702;47.068;15.458;2022-12-07T01:51:46;5.10;99.90
13268;DHT22;6702;47.068;15.458;2022-12-07T01:54:53;5.20;99.90
13268;DHT22;6702;47.068;15.458;2022-12-07T01:57:57;5.20;99.90
13268;DHT22;6702;47.068;15.458;2022-12-07T02:01:00;5.20;99.90
13268;DHT22;6702;47.068;15.458;2022-12-07T02:04:06;5.20;99.90
13268;DHT22;6702;47.068;15.458;2022-12-07T02:07:09;5.10;99.90
13268;DHT22;6702;47.068;15.458;2022-12-07T02:10:13;5.10;99.90
13268;DHT22;6702;47.068;15.458;2022-12-07T02:13:20;5.10;99.90
13268;DHT22;6702;47.068;15.458;2022-12-07T02:16:29;5.10;99.90
13268;DHT22;6702;47.068;15.458;2022-12-07T02:20:08;5.20;99.90
13268;DHT22;6702;47.068;15.458;2022-12-07T02:23:43;5.10;99.90
13268;DHT22;6702;47.068;15.458;2022-12-07T02:27:12;5.00;99.90
13268;DHT22;6702;47.068;15.458;2022-12-07T02:30:20;5.00;99.90
13268;DHT22;6702;47.068;15.458;2022-12-07T02:33:27;5.00;99.90
13268;DHT22;6702;47.068;15.458;2022-12-07T02:36:35;5.10;99.90
13268;DHT22;6702;47.068;15.458;2022-12-07T02:39:43;5.00;99.90
13268;DHT22;6702;47.068;15.458;2022-12-07T02:42:50;5.10;99.90
13268;DHT22;6702;47.068;15.458;2022-12-07T02:46:00;5.00;99.90
13268;DHT22;6702;47.068;15.458;2022-12-07T02:49:06;5.00;99.90
13268;DHT22;6702;47.068;15.458;2022-12-07T02:52:09;4.90;99.90
13268;DHT22;6702;47.068;15.458;2022-12-07T02:55:13;5.00;99.90
13268;DHT22;6702;47.068;15.458;2022-12-07T02:58:26;5.00;99.90
13268;DHT22;6702;47.068;15.458;2022-12-07T03:01:40;4.90;99.90
13268;DHT22;6702;47.068;15.458;2022-12-07T03:04:55;4.90;99.90
13268;DHT22;6702;47.068;15.458;2022-12-07T03:08:10;4.90;99.90
13268;DHT22;6702;47.068;15.458;2022-12-07T03:11:18;4.90;99.90
13268;DHT22;6702;47.068;15.458;2022-12-07T03:14:26;4.80;99.90
13268;DHT22;6702;47.068;15.458;2022-12-07T03:17:37;4.80;99.90
13268;DHT22;6702;47.068;15.458;2022-12-07T03:20:44;4.80;99.90
13268;DHT22;6702;47.068;15.458;2022-12-07T03:23:52;4.90;99.90
13268;DHT22;6702;47.068;15.458;2022-12-07T03:27:01;4.80;99.90
13268;DHT22;6702;47.068;15.458;2022-12-07T03:30:07;4.90;99.90
13268;DHT22;6702;47.068;15.458;2022-12-07T03:33:15;4.80;99.90
13268;DHT22;6702;47.068;15.458;2022-12-07T03:36:25;4.80;99.90
13268;DHT22;6702;47.068;15.458;2022-12-07T03:39:34;4.70;99.90
13268;DHT22;6702;47.068;15.458;2022-12-07T03:42:39;4.80;99.90
13268;DHT22;6702;47.068;15.458;2022-12-07T03:45:44;4.70;99.90
13268;DHT22;6702;47.068;15.458;2022-12-07T03:48:57;4.70;99.90
13268;DHT22;6702;47.068;15.458;2022-12-07T03:52:08;4.60;99.90
13268;DHT22;6702;47.068;15.458;2022-12-07T03:55:15;4.60;99.90
13268;DHT22;6702;47.068;15.458;2022-12-07T03:58:22;4.60;99.90
13268;DHT22;6702;47.068;15.458;2022-12-07T04:01:26;4.60;99.90
13268;DHT22;6702;47.068;15.458;2022-12-07T04:04:32;4.60;99.90
13268;DHT22;6702;47.068;15.458;2022-12-07T04:07:36;4.60;99.90
13268;DHT22;6702;47.068;15.458;2022-12-07T04:10:39;4.60;99.90
13268;DHT22;6702;47.068;15.458;2022-12-07T04:13:42;4.60;99.90
13268;DHT22;6702;47.068;15.458;2022-12-07T04:17:03;4.50;99.90
13268;DHT22;6702;47.068;15.458;2022-12-07T04:20:09;4.50;99.90
13268;DHT22;6702;47.068;15.458;2022-12-07T04:23:12;4.50;99.90
13268;DHT22;6702;47.068;15.458;2022-12-07T04:26:15;4.50;99.90
13268;DHT22;6702;47.068;15.458;2022-12-07T04:29:18;4.50;99.90
13268;DHT22;6702;47.068;15.458;2022-12-07T04:32:22;4.50;99.90
13268;DHT22;6702;47.068;15.458;2022-12-07T04:35:26;4.40;99.90
13268;DHT22;6702;47.068;15.458;2022-12-07T04:38:30;4.50;99.90
13268;DHT22;6702;47.068;15.458;2022-12-07T04:41:33;4.50;99.90
13268;DHT22;6702;47.068;15.458;2022-12-07T04:44:36;4.40;99.90
13268;DHT22;6702;47.068;15.458;2022-12-07T04:47:40;4.50;99.90
13268;DHT22;6702;47.068;15.458;2022-12-07T04:50:44;4.40;99.90
13268;DHT22;6702;47.068;15.458;2022-12-07T04:53:50;4.40;99.90
13268;DHT22;6702;47.068;15.458;2022-12-07T04:56:53;4.40;99.90
13268;DHT22;6702;47.068;15.458;2022-12-07T04:59:56;4.40;99.90
13268;DHT22;6702;47.068;15.458;2022-12-07T05:02:59;4.50;99.90
13268;DHT22;6702;47.068;15.458;2022-12-07T05:06:05;4.40;99.90
13268;DHT22;6702;47.068;15.458;2022-12-07T05:09:14;4.40;99.90
13268;DHT22;6702;47.068;15.458;2022-12-07T05:12:17;4.50;99.90
13268;DHT22;6702;47.068;15.458;2022-12-07T05:15:20;4.40;99.90
13268;DHT22;6702;47.068;15.458;2022-12-07T05:18:23;4.40;99.90
13268;DHT22;6702;47.068;15.458;2022-12-07T05:21:27;4.40;99.90
13268;DHT22;6702;47.068;15.458;2022-12-07T05:24:31;4.40;99.90
13268;DHT22;6702;47.068;15.458;2022-12-07T05:27:34;4.40;99.90
13268;DHT22;6702;47.068;15.458;2022-12-07T05:30:37;4.40;99.90
13268;DHT22;6702;47.068;15.458;2022-12-07T05:33:40;4.40;99.90
13268;DHT22;6702;47.068;15.458;2022-12-07T05:36:44;4.40;99.90
13268;DHT22;6702;47.068;15.458;2022-12-07T05:39:48;4.40;99.90
13268;DHT22;6702;47.068;15.458;2022-12-07T05:42:51;4.40;99.90
13268;DHT22;6702;47.068;15.458;2022-12-07T05:45:54;4.40;99.90
13268;DHT22;6702;47.068;15.458;2022-12-07T05:48:57;4.40;99.90
13268;DHT22;6702;47.068;15.458;2022-12-07T05:52:02;4.30;99.90
13268;DHT22;6702;47.068;15.458;2022-12-07T05:55:06;4.30;99.90
13268;DHT22;6702;47.068;15.458;2022-12-07T05:58:10;4.30;99.90
13268;DHT22;6702;47.068;15.458;2022-12-07T06:01:30;4.20;99.90
13268;DHT22;6702;47.068;15.458;2022-12-07T06:04:36;4.20;99.90
13268;DHT22;6702;47.068;15.458;2022-12-07T06:07:40;4.20;99.90
13268;DHT22;6702;47.068;15.458;2022-12-07T06:10:44;4.30;99.90
13268;DHT22;6702;47.068;15.458;2022-12-07T06:13:47;4.20;99.90
13268;DHT22;6702;47.068;15.458;2022-12-07T06:16:49;4.30;99.90
13268;DHT22;6702;47.068;15.458;2022-12-07T06:19:52;4.20;99.90
13268;DHT22;6702;47.068;15.458;2022-12-07T06:22:57;4.20;99.90
13268;DHT22;6702;47.068;15.458;2022-12-07T06:26:00;4.20;99.90
13268;DHT22;6702;47.068;15.458;2022-12-07T06:29:03;4.30;99.90
13268;DHT22;6702;47.068;15.458;2022-12-07T06:32:06;4.30;99.90
13268;DHT22;6702;47.068;15.458;2022-12-07T06:35:09;4.30;99.90
13268;DHT22;6702;47.068;15.458;2022-12-07T06:38:14;4.30;99.90
13268;DHT22;6702;47.068;15.458;2022-12-07T06:41:17;4.30;99.90
13268;DHT22;6702;47.068;15.458;2022-12-07T06:44:21;4.30;99.90
13268;DHT22;6702;47.068;15.458;2022-12-07T06:47:24;4.30;99.90
13268;DHT22;6702;47.068;15.458;2022-12-07T06:50:47;4.30;99.90
13268;DHT22;6702;47.068;15.458;2022-12-07T06:53:57;4.40;99.90
13268;DHT22;6702;47.068;15.458;2022-12-07T06:57:00;4.40;99.90
13268;DHT22;6702;47.068;15.458;2022-12-07T07:00:05;4.40;99.90
13268;DHT22;6702;47.068;15.458;2022-12-07T07:03:08;4.40;99.90
13268;DHT22;6702;47.068;15.458;2022-12-07T07:06:12;4.50;99.90
13268;DHT22;6702;47.068;15.458;2022-12-07T07:09:17;4.50;99.90
13268;DHT22;6702;47.068;15.458;2022-12-07T07:12:20;4.60;99.90
13268;DHT22;6702;47.068;15.458;2022-12-07T07:15:23;4.70;99.90
13268;DHT22;6702;47.068;15.458;2022-12-07T07:18:27;4.70;99.90
13268;DHT22;6702;47.068;15.458;2022-12-07T07:21:30;4.70;99.90
13268;DHT22;6702;47.068;15.458;2022-12-07T07:24:34;4.80;99.90
13268;DHT22;6702;47.068;15.458;2022-12-07T07:27:37;4.90;99.90
13268;DHT22;6702;47.068;15.458;2022-12-07T07:30:41;5.00;99.90
13268;DHT22;6702;47.068;15.458;2022-12-07T07:33:45;5.10;99.90
13268;DHT22;6702;47.068;15.458;2022-12-07T07:36:48;5.20;99.90
13268;DHT22;6702;47.068;15.458;2022-12-07T07:39:52;5.30;99.90
13268;DHT22;6702;47.068;15.458;2022-12-07T07:42:56;5.30;99.90
13268;DHT22;6702;47.068;15.458;2022-12-07T07:45:59;5.30;99.90
13268;DHT22;6702;47.068;15.458;2022-12-07T07:49:02;5.20;99.90
13268;DHT22;6702;47.068;15.458;2022-12-07T07:52:06;5.30;99.90
13268;DHT22;6702;47.068;15.458;2022-12-07T07:55:10;5.30;99.90
13268;DHT22;6702;47.068;15.458;2022-12-07T07:58:14;5.40;99.90
13268;DHT22;6702;47.068;15.458;2022-12-07T08:01:18;5.50;99.90
13268;DHT22;6702;47.068;15.458;2022-12-07T08:04:22;5.60;99.90
13268;DHT22;6702;47.068;15.458;2022-12-07T08:07:26;5.70;99.90
13268;DHT22;6702;47.068;15.458;2022-12-07T08:10:31;5.70;99.90
13268;DHT22;6702;47.068;15.458;2022-12-07T08:13:34;5.70;99.90
13268;DHT22;6702;47.068;15.458;2022-12-07T08:16:38;5.80;99.90
13268;DHT22;6702;47.068;15.458;2022-12-07T08:19:41;5.80;99.90
13268;DHT22;6702;47.068;15.458;2022-12-07T08:22:44;5.80;99.90
13268;DHT22;6702;47.068;15.458;2022-12-07T08:25:48;5.90;99.90
13268;DHT22;6702;47.068;15.458;2022-12-07T08:28:52;5.90;99.90
13268;DHT22;6702;47.068;15.458;2022-12-07T08:31:55;6.10;99.90
13268;DHT22;6702;47.068;15.458;2022-12-07T08:34:59;6.20;99.90
13268;DHT22;6702;47.068;15.458;2022-12-07T08:38:02;6.40;99.90
13268;DHT22;6702;47.068;15.458;2022-12-07T08:41:07;6.50;99.90
13268;DHT22;6702;47.068;15.458;2022-12-07T08:44:11;6.60;99.90
13268;DHT22;6702;47.068;15.458;2022-12-07T08:47:14;6.70;99.90
13268;DHT22;6702;47.068;15.458;2022-12-07T08:50:18;6.70;99.90
13268;DHT22;6702;47.068;15.458;2022-12-07T08:53:21;6.70;99.90
13268;DHT22;6702;47.068;15.458;2022-12-07T08:56:26;6.60;99.90
13268;DHT22;6702;47.068;15.458;2022-12-07T08:59:30;6.60;99.90
13268;DHT22;6702;47.068;15.458;2022-12-07T09:02:33;6.70;99.90
13268;DHT22;6702;47.068;15.458;2022-12-07T09:05:37;6.80;99.90
13268;DHT22;6702;47.068;15.458;2022-12-07T09:08:43;6.90;99.90
13268;DHT22;6702;47.068;15.458;2022-12-07T09:11:50;6.80;99.90
13268;DHT22;6702;47.068;15.458;2022-12-07T09:14:53;6.80;99.90
13268;DHT22;6702;47.068;15.458;2022-12-07T09:17:56;6.90;99.90
13268;DHT22;6702;47.068;15.458;2022-12-07T09:20:59;7.10;99.90
13268;DHT22;6702;47.068;15.458;2022-12-07T09:24:03;7.30;99.90
13268;DHT22;6702;47.068;15.458;2022-12-07T09:27:07;7.40;99.90
13268;DHT22;6702;47.068;15.458;2022-12-07T09:30:11;7.70;99.90
13268;DHT22;6702;47.068;15.458;2022-12-07T09:33:14;7.70;99.90
13268;DHT22;6702;47.068;15.458;2022-12-07T09:36:24;7.90;99.90
13268;DHT22;6702;47.068;15.458;2022-12-07T09:39:30;7.90;99.90
13268;DHT22;6702;47.068;15.458;2022-12-07T09:42:37;8.00;99.90
13268;DHT22;6702;47.068;15.458;2022-12-07T09:45:42;8.10;99.90
13268;DHT22;6702;47.068;15.458;2022-12-07T09:48:50;8.30;99.90
13268;DHT22;6702;47.068;15.458;2022-12-07T09:52:01;8.50;99.90
13268;DHT22;6702;47.068;15.458;2022-12-07T09:55:10;8.70;99.90
13268;DHT22;6702;47.068;15.458;2022-12-07T09:58:20;9.00;99.90
13268;DHT22;6702;47.068;15.458;2022-12-07T10:01:24;9.10;99.90
13268;DHT22;6702;47.068;15.458;2022-12-07T10:04:27;9.10;99.90
13268;DHT22;6702;47.068;15.458;2022-12-07T10:07:31;9.10;99.90
13268;DHT22;6702;47.068;15.458;2022-12-07T10:10:35;9.10;99.90
13268;DHT22;6702;47.068;15.458;2022-12-07T10:13:43;9.20;99.90
13268;DHT22;6702;47.068;15.458;2022-12-07T10:16:48;9.40;99.90
13268;DHT22;6702;47.068;15.458;2022-12-07T10:19:51;9.50;99.90
13268;DHT22;6702;47.068;15.458;2022-12-07T10:22:56;9.70;99.90
13268;DHT22;6702;47.068;15.458;2022-12-07T10:26:20;9.90;99.90
13268;DHT22;6702;47.068;15.458;2022-12-07T10:29:30;10.00;99.60
13268;DHT22;6702;47.068;15.458;2022-12-07T10:32:35;10.10;99.70
13268;DHT22;6702;47.068;15.458;2022-12-07T10:35:43;10.20;99.40
13268;DHT22;6702;47.068;15.458;2022-12-07T10:38:49;10.10;99.20
13268;DHT22;6702;47.068;15.458;2022-12-07T10:41:54;10.00;99.40
13268;DHT22;6702;47.068;15.458;2022-12-07T10:45:12;9.90;99.90
13268;DHT22;6702;47.068;15.458;2022-12-07T10:48:21;9.90;99.90
13268;DHT22;6702;47.068;15.458;2022-12-07T10:51:35;10.00;99.20
13268;DHT22;6702;47.068;15.458;2022-12-07T10:54:48;10.10;99.50
13268;DHT22;6702;47.068;15.458;2022-12-07T10:58:04;10.40;99.40
13268;DHT22;6702;47.068;15.458;2022-12-07T11:01:16;10.70;98.70
13268;DHT22;6702;47.068;15.458;2022-12-07T11:04:28;10.90;97.90
13268;DHT22;6702;47.068;15.458;2022-12-07T11:07:39;11.10;97.50
13268;DHT22;6702;47.068;15.458;2022-12-07T11:10:48;12.00;97.60
13268;DHT22;6702;47.068;15.458;2022-12-07T11:13:59;14.50;95.30
13268;DHT22;6702;47.068;15.458;2022-12-07T11:17:12;15.60;89.80
13268;DHT22;6702;47.068;15.458;2022-12-07T11:23:52;15.30;84.50
13268;DHT22;6702;47.068;15.458;2022-12-07T11:27:09;15.60;84.20
13268;DHT22;6702;47.068;15.458;2022-12-07T11:30:18;15.90;80.80
13268;DHT22;6702;47.068;15.458;2022-12-07T11:33:29;15.40;79.00
13268;DHT22;6702;47.068;15.458;2022-12-07T11:36:38;14.40;81.30
13268;DHT22;6702;47.068;15.458;2022-12-07T11:39:47;13.50;84.00
13268;DHT22;6702;47.068;15.458;2022-12-07T11:42:57;12.70;86.10
13268;DHT22;6702;47.068;15.458;2022-12-07T11:46:04;12.00;89.00
13268;DHT22;6702;47.068;15.458;2022-12-07T11:49:15;11.50;90.80
13268;DHT22;6702;47.068;15.458;2022-12-07T11:52:27;11.00;91.90
13268;DHT22;6702;47.068;15.458;2022-12-07T11:55:41;10.60;93.00
13268;DHT22;6702;47.068;15.458;2022-12-07T11:58:49;10.30;94.00
13268;DHT22;6702;47.068;15.458;2022-12-07T12:01:57;10.00;94.90
13268;DHT22;6702;47.068;15.458;2022-12-07T12:05:12;9.90;96.30
13268;DHT22;6702;47.068;15.458;2022-12-07T12:08:19;10.00;96.10
13268;DHT22;6702;47.068;15.458;2022-12-07T12:15:43;11.00;96.50
13268;DHT22;6702;47.068;15.458;2022-12-07T12:19:08;13.40;93.60
13268;DHT22;6702;47.068;15.458;2022-12-07T12:22:20;15.60;89.60
13268;DHT22;6702;47.068;15.458;2022-12-07T12:25:28;18.70;77.10
13268;DHT22;6702;47.068;15.458;2022-12-07T12:28:37;20.30;66.20
13268;DHT22;6702;47.068;15.458;2022-12-07T12:32:06;20.10;59.40
13268;DHT22;6702;47.068;15.458;2022-12-07T12:35:30;18.20;62.40
13268;DHT22;6702;47.068;15.458;2022-12-07T12:38:48;17.00;65.20
13268;DHT22;6702;47.068;15.458;2022-12-07T12:42:00;16.20;68.10
13268;DHT22;6702;47.068;15.458;2022-12-07T12:45:21;16.20;71.70
13268;DHT22;6702;47.068;15.458;2022-12-07T12:48:29;18.00;67.30
13268;DHT22;6702;47.068;15.458;2022-12-07T12:51:37;20.00;61.90
13268;DHT22;6702;47.068;15.458;2022-12-07T12:54:58;22.70;55.70
13268;DHT22;6702;47.068;15.458;2022-12-07T13:01:44;23.70;45.10
13268;DHT22;6702;47.068;15.458;2022-12-07T13:04:53;21.00;48.10
13268;DHT22;6702;47.068;15.458;2022-12-07T13:07:58;18.70;51.90
13268;DHT22;6702;47.068;15.458;2022-12-07T13:11:18;16.70;56.00
13268;DHT22;6702;47.068;15.458;2022-12-07T13:14:52;15.10;60.40
13268;DHT22;6702;47.068;15.458;2022-12-07T13:18:01;15.00;65.50
13268;DHT22;6702;47.068;15.458;2022-12-07T13:21:41;15.40;64.80
13268;DHT22;6702;47.068;15.458;2022-12-07T13:24:46;14.40;65.30
13268;DHT22;6702;47.068;15.458;2022-12-07T13:27:54;13.40;68.60
13268;DHT22;6702;47.068;15.458;2022-12-07T13:31:04;12.50;73.20
13268;DHT22;6702;47.068;15.458;2022-12-07T13:34:30;12.30;76.40
13268;DHT22;6702;47.068;15.458;2022-12-07T13:37:34;11.80;78.90
13268;DHT22;6702;47.068;15.458;2022-12-07T13:40:39;11.20;82.10
13268;DHT22;6702;47.068;15.458;2022-12-07T13:43:49;10.60;84.90
13268;DHT22;6702;47.068;15.458;2022-12-07T13:46:58;10.20;88.60
13268;DHT22;6702;47.068;15.458;2022-12-07T13:50:22;9.90;91.30
13268;DHT22;6702;47.068;15.458;2022-12-07T13:53:26;9.40;93.10
13268;DHT22;6702;47.068;15.458;2022-12-07T13:56:34;9.10;94.60
13268;DHT22;6702;47.068;15.458;2022-12-07T13:59:42;8.80;96.30
13268;DHT22;6702;47.068;15.458;2022-12-07T14:02:56;8.50;97.90
13268;DHT22;6702;47.068;15.458;2022-12-07T14:06:14;8.30;99.00
13268;DHT22;6702;47.068;15.458;2022-12-07T14:09:19;8.20;99.90
13268;DHT22;6702;47.068;15.458;2022-12-07T14:12:26;8.10;99.90
13268;DHT22;6702;47.068;15.458;2022-12-07T14:15:32;8.00;99.90
13268;DHT22;6702;47.068;15.458;2022-12-07T14:18:38;8.00;99.90
13268;DHT22;6702;47.068;15.458;2022-12-07T14:21:42;7.70;99.90
13268;DHT22;6702;47.068;15.458;2022-12-07T14:24:45;7.70;99.90
13268;DHT22;6702;47.068;15.458;2022-12-07T14:27:51;7.60;99.90
13268;DHT22;6702;47.068;15.458;2022-12-07T14:30:58;7.50;99.90
13268;DHT22;6702;47.068;15.458;2022-12-07T14:34:02;7.30;99.90
13268;DHT22;6702;47.068;15.458;2022-12-07T14:37:07;7.30;99.90
13268;DHT22;6702;47.068;15.458;2022-12-07T14:40:14;7.30;99.90
13268;DHT22;6702;47.068;15.458;2022-12-07T14:43:18;7.10;99.90
13268;DHT22;6702;47.068;15.458;2022-12-07T14:46:23;6.90;99.90
13268;DHT22;6702;47.068;15.458;2022-12-07T14:49:26;6.80;99.90
13268;DHT22;6702;47.068;15.458;2022-12-07T14:52:33;6.80;99.90
13268;DHT22;6702;47.068;15.458;2022-12-07T14:55:56;6.50;99.90
13268;DHT22;6702;47.068;15.458;2022-12-07T14:58:59;6.40;99.90
13268;DHT22;6702;47.068;15.458;2022-12-07T15:02:04;6.30;99.90
13268;DHT22;6702;47.068;15.458;2022-12-07T15:05:08;6.30;99.90
13268;DHT22;6702;47.068;15.458;2022-12-07T15:08:17;6.30;99.90
13268;DHT22;6702;47.068;15.458;2022-12-07T15:11:20;6.30;99.90
13268;DHT22;6702;47.068;15.458;2022-12-07T15:14:24;6.20;99.90
13268;DHT22;6702;47.068;15.458;2022-12-07T15:17:28;6.10;99.90
13268;DHT22;6702;47.068;15.458;2022-12-07T15:20:33;6.00;99.90
13268;DHT22;6702;47.068;15.458;2022-12-07T15:23:36;6.00;99.90
13268;DHT22;6702;47.068;15.458;2022-12-07T15:26:40;6.00;99.90
13268;DHT22;6702;47.068;15.458;2022-12-07T15:29:43;6.10;99.90
13268;DHT22;6702;47.068;15.458;2022-12-07T15:32:50;6.10;99.90
13268;DHT22;6702;47.068;15.458;2022-12-07T15:35:53;6.20;99.90
13268;DHT22;6702;47.068;15.458;2022-12-07T15:38:57;6.20;99.90
13268;DHT22;6702;47.068;15.458;2022-12-07T15:42:16;6.30;99.90
13268;DHT22;6702;47.068;15.458;2022-12-07T15:45:19;6.20;99.90
13268;DHT22;6702;47.068;15.458;2022-12-07T15:48:23;6.20;99.90
13268;DHT22;6702;47.068;15.458;2022-12-07T15:51:30;6.20;99.90
13268;DHT22;6702;47.068;15.458;2022-12-07T15:54:33;6.20;99.90
13268;DHT22;6702;47.068;15.458;2022-12-07T15:57:37;6.20;99.90
13268;DHT22;6702;47.068;15.458;2022-12-07T16:00:41;6.20;99.90
13268;DHT22;6702;47.068;15.458;2022-12-07T16:03:46;6.20;99.90
13268;DHT22;6702;47.068;15.458;2022-12-07T16:06:49;6.10;99.90
13268;DHT22;6702;47.068;15.458;2022-12-07T16:09:53;6.20;99.90
13268;DHT22;6702;47.068;15.458;2022-12-07T16:12:56;6.20;99.90
13268;DHT22;6702;47.068;15.458;2022-12-07T16:16:02;6.20;99.90
13268;DHT22;6702;47.068;15.458;2022-12-07T16:19:08;6.10;99.90
13268;DHT22;6702;47.068;15.458;2022-12-07T16:22:13;6.10;99.90
13268;DHT22;6702;47.068;15.458;2022-12-07T16:25:16;6.10;99.90
13268;DHT22;6702;47.068;15.458;2022-12-07T16:28:20;6.10;99.90
13268;DHT22;6702;47.068;15.458;2022-12-07T16:31:25;6.10;99.90
13268;DHT22;6702;47.068;15.458;2022-12-07T16:34:30;6.10;99.90
13268;DHT22;6702;47.068;15.458;2022-12-07T16:37:35;6.10;99.90
13268;DHT22;6702;47.068;15.458;2022-12-07T16:40:38;6.20;99.90
13268;DHT22;6702;47.068;15.458;2022-12-07T16:43:41;6.20;99.90
13268;DHT22;6702;47.068;15.458;2022-12-07T16:46:45;6.20;99.90
13268;DHT22;6702;47.068;15.458;2022-12-07T16:49:49;6.20;99.90
13268;DHT22;6702;47.068;15.458;2022-12-07T16:52:53;6.20;99.90
13268;DHT22;6702;47.068;15.458;2022-12-07T16:55:57;6.20;99.90
13268;DHT22;6702;47.068;15.458;2022-12-07T16:59:00;6.20;99.90
13268;DHT22;6702;47.068;15.458;2022-12-07T17:02:04;6.20;99.90
13268;DHT22;6702;47.068;15.458;2022-12-07T17:05:09;6.20;99.90
13268;DHT22;6702;47.068;15.458;2022-12-07T17:08:14;6.20;99.90
13268;DHT22;6702;47.068;15.458;2022-12-07T17:11:19;6.30;99.90
13268;DHT22;6702;47.068;15.458;2022-12-07T17:14:23;6.20;99.90
13268;DHT22;6702;47.068;15.458;2022-12-07T17:17:44;6.20;99.90
13268;DHT22;6702;47.068;15.458;2022-12-07T17:20:49;6.20;99.90
13268;DHT22;6702;47.068;15.458;2022-12-07T17:23:52;6.20;99.90
13268;DHT22;6702;47.068;15.458;2022-12-07T17:26:55;6.20;99.90
13268;DHT22;6702;47.068;15.458;2022-12-07T17:29:59;6.20;99.90
13268;DHT22;6702;47.068;15.458;2022-12-07T17:33:02;6.20;99.90
13268;DHT22;6702;47.068;15.458;2022-12-07T17:36:11;6.10;99.90
13268;DHT22;6702;47.068;15.458;2022-12-07T17:39:16;6.20;99.90
13268;DHT22;6702;47.068;15.458;2022-12-07T17:42:22;6.10;99.90
13268;DHT22;6702;47.068;15.458;2022-12-07T17:45:42;6.10;99.90
13268;DHT22;6702;47.068;15.458;2022-12-07T17:48:50;6.00;99.90
13268;DHT22;6702;47.068;15.458;2022-12-07T17:51:55;6.00;99.90
13268;DHT22;6702;47.068;15.458;2022-12-07T17:55:16;6.00;99.90
13268;DHT22;6702;47.068;15.458;2022-12-07T17:58:20;5.90;99.90
13268;DHT22;6702;47.068;15.458;2022-12-07T18:01:23;6.00;99.90
13268;DHT22;6702;47.068;15.458;2022-12-07T18:04:35;5.90;99.90
13268;DHT22;6702;47.068;15.458;2022-12-07T18:07:40;5.90;99.90
13268;DHT22;6702;47.068;15.458;2022-12-07T18:10:44;5.90;99.90
13268;DHT22;6702;47.068;15.458;2022-12-07T18:13:51;5.90;99.90
13268;DHT22;6702;47.068;15.458;2022-12-07T18:16:54;5.90;99.90
13268;DHT22;6702;47.068;15.458;2022-12-07T18:19:58;5.90;99.90
13268;DHT22;6702;47.068;15.458;2022-12-07T18:23:02;6.00;99.90
13268;DHT22;6702;47.068;15.458;2022-12-07T18:26:07;6.00;99.90
13268;DHT22;6702;47.068;15.458;2022-12-07T18:29:14;6.00;99.90
13268;DHT22;6702;47.068;15.458;2022-12-07T18:32:17;6.00;99.90
13268;DHT22;6702;47.068;15.458;2022-12-07T18:35:22;6.00;99.90
13268;DHT22;6702;47.068;15.458;2022-12-07T18:38:29;5.90;99.90
13268;DHT22;6702;47.068;15.458;2022-12-07T18:41:36;5.90;99.90
13268;DHT22;6702;47.068;15.458;2022-12-07T18:44:40;6.00;99.90
13268;DHT22;6702;47.068;15.458;2022-12-07T18:47:45;6.00;99.90
13268;DHT22;6702;47.068;15.458;2022-12-07T18:50:58;5.90;99.90
13268;DHT22;6702;47.068;15.458;2022-12-07T18:54:04;6.00;99.90
13268;DHT22;6702;47.068;15.458;2022-12-07T18:57:09;6.00;99.90
13268;DHT22;6702;47.068;15.458;2022-12-07T19:00:14;6.10;99.90
13268;DHT22;6702;47.068;15.458;2022-12-07T19:03:19;6.00;99.90
13268;DHT22;6702;47.068;15.458;2022-12-07T19:06:24;5.90;99.90
13268;DHT22;6702;47.068;15.458;2022-12-07T19:09:30;5.90;99.90
13268;DHT22;6702;47.068;15.458;2022-12-07T19:12:34;5.90;99.90
13268;DHT22;6702;47.068;15.458;2022-12-07T19:15:39;5.90;99.90
13268;DHT22;6702;47.068;15.458;2022-12-07T19:18:44;5.90;99.90
13268;DHT22;6702;47.068;15.458;2022-12-07T19:21:52;5.90;99.90
13268;DHT22;6702;47.068;15.458;2022-12-07T19:24:58;5.90;99.90
13268;DHT22;6702;47.068;15.458;2022-12-07T19:28:03;5.90;99.90
13268;DHT22;6702;47.068;15.458;2022-12-07T19:31:08;6.00;99.90
13268;DHT22;6702;47.068;15.458;2022-12-07T19:34:15;5.90;99.90
13268;DHT22;6702;47.068;15.458;2022-12-07T19:37:20;5.90;99.90
13268;DHT22;6702;47.068;15.458;2022-12-07T19:40:27;5.80;99.90
13268;DHT22;6702;47.068;15.458;2022-12-07T19:43:34;5.80;99.90
13268;DHT22;6702;47.068;15.458;2022-12-07T19:46:38;5.70;99.90
13268;DHT22;6702;47.068;15.458;2022-12-07T19:49:46;5.70;99.90
13268;DHT22;6702;47.068;15.458;2022-12-07T19:52:51;5.70;99.90
13268;DHT22;6702;47.068;15.458;2022-12-07T19:55:59;5.70;99.90
13268;DHT22;6702;47.068;15.458;2022-12-07T19:59:05;5.70;99.90
13268;DHT22;6702;47.068;15.458;2022-12-07T20:02:12;5.70;99.90
13268;DHT22;6702;47.068;15.458;2022-12-07T20:05:17;5.60;99.90
13268;DHT22;6702;47.068;15.458;2022-12-07T20:08:22;5.50;99.90
13268;DHT22;6702;47.068;15.458;2022-12-07T20:11:30;5.60;99.90
13268;DHT22;6702;47.068;15.458;2022-12-07T20:14:52;5.40;99.90
13268;DHT22;6702;47.068;15.458;2022-12-07T20:17:56;5.50;99.90
13268;DHT22;6702;47.068;15.458;2022-12-07T20:21:01;5.50;99.90
13268;DHT22;6702;47.068;15.458;2022-12-07T20:24:08;5.50;99.90